sensor_id;sensor_type;location;lat;lon;timestamp;temperature;humidity
12847;DHT22;6492;48.128;8.320;2024-01-07T00:01:59;0.20;72.60
12847;DHT22;6492;48.128;8.320;2024-01-07T00:06:01;0.20;72.60
12847;DHT22;6492;48.128;8.320;2024-01-07T00:10:03;0.20;72.60
12847;DHT22;6492;48.128;8.320;2024-01-07T00:14:05;0.20;72.60
12847;DHT22;6492;48.128;8.320;2024-01-07T00:18:08;0.20;72.60
12847;DHT22;6492;48.128;8.320;2024-01-07T00:22:10;0.20;72.60
12847;DHT22;6492;48.128;8.320;2024-01-07T00:26:12;0.20;72.60
12847;DHT22;6492;48.128;8.320;2024-01-07T00:30:14;0.20;72.60
12847;DHT22;6492;48.128;8.320;2024-01-07T00:34:17;0.20;73.40
12847;DHT22;6492;48.128;8.320;2024-01-07T00:38:18;0.20;72.60
12847;DHT22;6492;48.128;8.320;2024-01-07T00:42:21;0.10;72.50
12847;DHT22;6492;48.128;8.320;2024-01-07T00:46:22;0.10;72.60
12847;DHT22;6492;48.128;8.320;2024-01-07T00:50:26;0.10;72.60
12847;DHT22;6492;48.128;8.320;2024-01-07T00:54:27;0.10;72.60
12847;DHT22;6492;48.128;8.320;2024-01-07T00:58:29;0.10;72.60
12847;DHT22;6492;48.128;8.320;2024-01-07T01:02:31;0.10;72.60
12847;DHT22;6492;48.128;8.320;2024-01-07T01:06:34;0.10;72.60
12847;DHT22;6492;48.128;8.320;2024-01-07T01:10:35;0.10;72.60
12847;DHT22;6492;48.128;8.320;2024-01-07T01:14:37;0.10;72.60
12847;DHT22;6492;48.128;8.320;2024-01-07T01:18:39;0.10;72.60
12847;DHT22;6492;48.128;8.320;2024-01-07T01:22:42;0.10;72.60
12847;DHT22;6492;48.128;8.320;2024-01-07T01:26:44;0.10;72.60
12847;DHT22;6492;48.128;8.320;2024-01-07T01:30:45;0.10;72.60
12847;DHT22;6492;48.128;8.320;2024-01-07T01:34:47;0.10;72.60
12847;DHT22;6492;48.128;8.320;2024-01-07T01:38:50;0.10;72.60
12847;DHT22;6492;48.128;8.320;2024-01-07T01:42:52;0.10;72.60
12847;DHT22;6492;48.128;8.320;2024-01-07T01:46:54;0.10;72.60
12847;DHT22;6492;48.128;8.320;2024-01-07T01:50:56;0.10;72.60
12847;DHT22;6492;48.128;8.320;2024-01-07T01:54:59;0.10;72.50
12847;DHT22;6492;48.128;8.320;2024-01-07T01:59:01;0.10;72.50
12847;DHT22;6492;48.128;8.320;2024-01-07T02:03:04;0.10;72.60
12847;DHT22;6492;48.128;8.320;2024-01-07T02:07:06;0.10;72.50
12847;DHT22;6492;48.128;8.320;2024-01-07T02:11:16;0.10;73.30
12847;DHT22;6492;48.128;8.320;2024-01-07T02:15:18;0.10;73.30
12847;DHT22;6492;48.128;8.320;2024-01-07T02:19:20;0.10;72.50
12847;DHT22;6492;48.128;8.320;2024-01-07T02:23:23;0.10;72.50
12847;DHT22;6492;48.128;8.320;2024-01-07T02:27:26;0.10;72.50
12847;DHT22;6492;48.128;8.320;2024-01-07T02:31:27;0.10;72.50
12847;DHT22;6492;48.128;8.320;2024-01-07T02:35:29;0.10;72.50
12847;DHT22;6492;48.128;8.320;2024-01-07T02:39:31;0.10;72.50
12847;DHT22;6492;48.128;8.320;2024-01-07T02:43:34;0.10;72.50
12847;DHT22;6492;48.128;8.320;2024-01-07T02:47:37;0.10;72.50
12847;DHT22;6492;48.128;8.320;2024-01-07T02:51:39;0.10;72.50
12847;DHT22;6492;48.128;8.320;2024-01-07T02:55:40;0.10;72.50
12847;DHT22;6492;48.128;8.320;2024-01-07T02:59:43;0.10;72.50
12847;DHT22;6492;48.128;8.320;2024-01-07T03:03:45;0.10;72.50
12847;DHT22;6492;48.128;8.320;2024-01-07T03:07:47;0.10;72.50
12847;DHT22;6492;48.128;8.320;2024-01-07T03:11:49;0.10;72.50
12847;DHT22;6492;48.128;8.320;2024-01-07T03:15:52;0.10;72.40
12847;DHT22;6492;48.128;8.320;2024-01-07T03:19:53;0.10;72.40
12847;DHT22;6492;48.128;8.320;2024-01-07T03:23:55;0.10;73.20
12847;DHT22;6492;48.128;8.320;2024-01-07T03:27:57;0.10;72.40
12847;DHT22;6492;48.128;8.320;2024-01-07T03:32:00;0.10;72.70
12847;DHT22;6492;48.128;8.320;2024-01-07T03:36:06;0.10;72.40
12847;DHT22;6492;48.128;8.320;2024-01-07T03:40:10;0.10;72.40
12847;DHT22;6492;48.128;8.320;2024-01-07T03:44:12;0.10;72.40
12847;DHT22;6492;48.128;8.320;2024-01-07T03:48:16;0.10;72.40
12847;DHT22;6492;48.128;8.320;2024-01-07T03:52:18;0.10;72.40
12847;DHT22;6492;48.128;8.320;2024-01-07T03:56:19;0.10;72.40
12847;DHT22;6492;48.128;8.320;2024-01-07T04:00:21;0.10;72.40
12847;DHT22;6492;48.128;8.320;2024-01-07T04:04:24;0.10;72.40
12847;DHT22;6492;48.128;8.320;2024-01-07T04:08:26;0.10;72.30
12847;DHT22;6492;48.128;8.320;2024-01-07T04:12:29;0.10;72.30
12847;DHT22;6492;48.128;8.320;2024-01-07T04:16:30;0.10;72.30
12847;DHT22;6492;48.128;8.320;2024-01-07T04:20:33;0.10;72.30
12847;DHT22;6492;48.128;8.320;2024-01-07T04:24:35;0.10;72.20
12847;DHT22;6492;48.128;8.320;2024-01-07T04:28:41;0.10;72.20
12847;DHT22;6492;48.128;8.320;2024-01-07T04:32:43;0.00;72.10
12847;DHT22;6492;48.128;8.320;2024-01-07T04:36:46;0.10;72.20
12847;DHT22;6492;48.128;8.320;2024-01-07T04:40:48;0.10;72.10
12847;DHT22;6492;48.128;8.320;2024-01-07T04:44:50;0.10;72.10
12847;DHT22;6492;48.128;8.320;2024-01-07T04:48:51;0.00;72.00
12847;DHT22;6492;48.128;8.320;2024-01-07T04:52:54;0.10;72.10
12847;DHT22;6492;48.128;8.320;2024-01-07T04:56:56;0.00;72.10
12847;DHT22;6492;48.128;8.320;2024-01-07T05:00:58;0.10;72.10
12847;DHT22;6492;48.128;8.320;2024-01-07T05:04:59;0.00;72.00
12847;DHT22;6492;48.128;8.320;2024-01-07T05:09:03;0.00;72.00
12847;DHT22;6492;48.128;8.320;2024-01-07T05:13:04;0.00;72.00
12847;DHT22;6492;48.128;8.320;2024-01-07T05:17:07;0.10;72.10
12847;DHT22;6492;48.128;8.320;2024-01-07T05:21:08;0.00;72.00
12847;DHT22;6492;48.128;8.320;2024-01-07T05:25:12;0.00;72.00
12847;DHT22;6492;48.128;8.320;2024-01-07T05:29:13;0.00;72.00
12847;DHT22;6492;48.128;8.320;2024-01-07T05:33:15;0.00;72.00
12847;DHT22;6492;48.128;8.320;2024-01-07T05:37:17;0.00;72.00
12847;DHT22;6492;48.128;8.320;2024-01-07T05:41:20;0.00;71.90
12847;DHT22;6492;48.128;8.320;2024-01-07T05:45:22;0.00;71.80
12847;DHT22;6492;48.128;8.320;2024-01-07T05:49:24;0.00;71.80
12847;DHT22;6492;48.128;8.320;2024-01-07T05:53:25;-0.10;71.80
12847;DHT22;6492;48.128;8.320;2024-01-07T05:57:29;-0.10;71.80
12847;DHT22;6492;48.128;8.320;2024-01-07T06:01:30;0.00;71.80
12847;DHT22;6492;48.128;8.320;2024-01-07T06:05:32;-0.10;71.80
12847;DHT22;6492;48.128;8.320;2024-01-07T06:09:34;0.00;71.80
12847;DHT22;6492;48.128;8.320;2024-01-07T06:13:37;0.00;71.80
12847;DHT22;6492;48.128;8.320;2024-01-07T06:17:39;-0.10;71.90
12847;DHT22;6492;48.128;8.320;2024-01-07T06:21:40;-0.10;71.90
12847;DHT22;6492;48.128;8.320;2024-01-07T06:25:42;0.00;72.00
12847;DHT22;6492;48.128;8.320;2024-01-07T06:29:45;0.00;71.80
12847;DHT22;6492;48.128;8.320;2024-01-07T06:33:47;-0.10;71.80
12847;DHT22;6492;48.128;8.320;2024-01-07T06:37:49;0.00;71.80
12847;DHT22;6492;48.128;8.320;2024-01-07T06:41:50;-0.10;71.80
12847;DHT22;6492;48.128;8.320;2024-01-07T06:45:54;-0.10;71.80
12847;DHT22;6492;48.128;8.320;2024-01-07T06:49:55;-0.10;71.80
12847;DHT22;6492;48.128;8.320;2024-01-07T06:53:57;-0.10;71.80
12847;DHT22;6492;48.128;8.320;2024-01-07T06:57:59;-0.10;71.80
12847;DHT22;6492;48.128;8.320;2024-01-07T07:02:02;-0.10;71.90
12847;DHT22;6492;48.128;8.320;2024-01-07T07:06:04;-0.10;71.80
12847;DHT22;6492;48.128;8.320;2024-01-07T07:10:06;-0.10;71.80
12847;DHT22;6492;48.128;8.320;2024-01-07T07:14:08;-0.10;71.70
12847;DHT22;6492;48.128;8.320;2024-01-07T07:18:11;-0.10;71.60
12847;DHT22;6492;48.128;8.320;2024-01-07T07:22:13;-0.10;71.50
12847;DHT22;6492;48.128;8.320;2024-01-07T07:26:15;-0.10;71.50
12847;DHT22;6492;48.128;8.320;2024-01-07T07:30:17;-0.10;71.40
12847;DHT22;6492;48.128;8.320;2024-01-07T07:34:21;-0.10;71.40
12847;DHT22;6492;48.128;8.320;2024-01-07T07:38:23;-0.20;71.30
12847;DHT22;6492;48.128;8.320;2024-01-07T07:42:25;-0.10;71.40
12847;DHT22;6492;48.128;8.320;2024-01-07T07:46:27;-0.10;71.40
12847;DHT22;6492;48.128;8.320;2024-01-07T07:50:30;-0.10;71.40
12847;DHT22;6492;48.128;8.320;2024-01-07T07:54:31;-0.10;71.40
12847;DHT22;6492;48.128;8.320;2024-01-07T07:58:33;0.00;71.40
12847;DHT22;6492;48.128;8.320;2024-01-07T08:02:35;0.00;71.20
12847;DHT22;6492;48.128;8.320;2024-01-07T08:06:38;0.00;71.20
12847;DHT22;6492;48.128;8.320;2024-01-07T08:10:40;0.10;70.90
12847;DHT22;6492;48.128;8.320;2024-01-07T08:14:41;0.10;70.80
12847;DHT22;6492;48.128;8.320;2024-01-07T08:18:43;0.20;70.70
12847;DHT22;6492;48.128;8.320;2024-01-07T08:22:46;0.20;70.10
12847;DHT22;6492;48.128;8.320;2024-01-07T08:26:48;0.30;70.00
12847;DHT22;6492;48.128;8.320;2024-01-07T08:30:55;0.30;69.90
12847;DHT22;6492;48.128;8.320;2024-01-07T08:34:59;0.30;69.60
12847;DHT22;6492;48.128;8.320;2024-01-07T08:39:02;0.30;69.30
12847;DHT22;6492;48.128;8.320;2024-01-07T08:43:04;0.30;68.80
12847;DHT22;6492;48.128;8.320;2024-01-07T08:47:06;0.30;67.90
12847;DHT22;6492;48.128;8.320;2024-01-07T08:51:08;0.30;67.70
12847;DHT22;6492;48.128;8.320;2024-01-07T08:55:12;0.30;67.20
12847;DHT22;6492;48.128;8.320;2024-01-07T08:59:14;0.30;67.10
12847;DHT22;6492;48.128;8.320;2024-01-07T09:03:15;0.30;66.90
12847;DHT22;6492;48.128;8.320;2024-01-07T09:07:18;0.30;66.50
12847;DHT22;6492;48.128;8.320;2024-01-07T09:11:21;0.30;66.60
12847;DHT22;6492;48.128;8.320;2024-01-07T09:15:25;0.40;66.70
12847;DHT22;6492;48.128;8.320;2024-01-07T09:19:26;0.40;65.70
12847;DHT22;6492;48.128;8.320;2024-01-07T09:23:28;0.40;65.60
12847;DHT22;6492;48.128;8.320;2024-01-07T09:27:31;0.40;65.30
12847;DHT22;6492;48.128;8.320;2024-01-07T09:31:33;0.40;65.20
12847;DHT22;6492;48.128;8.320;2024-01-07T09:35:35;0.40;64.80
12847;DHT22;6492;48.128;8.320;2024-01-07T09:39:38;0.40;64.20
12847;DHT22;6492;48.128;8.320;2024-01-07T09:43:41;0.40;63.90
12847;DHT22;6492;48.128;8.320;2024-01-07T09:47:44;0.50;63.40
12847;DHT22;6492;48.128;8.320;2024-01-07T09:51:46;0.50;63.80
12847;DHT22;6492;48.128;8.320;2024-01-07T09:55:57;0.50;62.90
12847;DHT22;6492;48.128;8.320;2024-01-07T10:00:08;0.50;62.90
12847;DHT22;6492;48.128;8.320;2024-01-07T10:04:10;0.50;62.90
12847;DHT22;6492;48.128;8.320;2024-01-07T10:08:13;0.60;63.20
12847;DHT22;6492;48.128;8.320;2024-01-07T10:12:22;0.50;61.90
12847;DHT22;6492;48.128;8.320;2024-01-07T10:16:28;0.50;61.80
12847;DHT22;6492;48.128;8.320;2024-01-07T10:20:31;0.60;62.20
12847;DHT22;6492;48.128;8.320;2024-01-07T10:24:45;0.80;62.40
12847;DHT22;6492;48.128;8.320;2024-01-07T10:28:49;0.90;62.10
12847;DHT22;6492;48.128;8.320;2024-01-07T10:32:55;1.00;60.90
12847;DHT22;6492;48.128;8.320;2024-01-07T10:36:59;1.00;59.20
12847;DHT22;6492;48.128;8.320;2024-01-07T10:41:05;1.00;58.90
12847;DHT22;6492;48.128;8.320;2024-01-07T10:45:09;1.00;57.50
12847;DHT22;6492;48.128;8.320;2024-01-07T10:49:20;1.00;57.40
12847;DHT22;6492;48.128;8.320;2024-01-07T10:53:28;0.90;56.50
12847;DHT22;6492;48.128;8.320;2024-01-07T10:57:41;0.80;56.50
12847;DHT22;6492;48.128;8.320;2024-01-07T11:01:50;0.80;56.60
12847;DHT22;6492;48.128;8.320;2024-01-07T11:05:58;0.70;56.00
12847;DHT22;6492;48.128;8.320;2024-01-07T11:10:07;0.70;55.00
12847;DHT22;6492;48.128;8.320;2024-01-07T11:14:34;0.70;54.00
12847;DHT22;6492;48.128;8.320;2024-01-07T11:18:50;0.50;52.20
12847;DHT22;6492;48.128;8.320;2024-01-07T11:23:27;0.50;53.80
12847;DHT22;6492;48.128;8.320;2024-01-07T11:27:30;0.60;54.10
12847;DHT22;6492;48.128;8.320;2024-01-07T11:31:45;0.60;52.40
12847;DHT22;6492;48.128;8.320;2024-01-07T11:36:00;0.50;52.60
12847;DHT22;6492;48.128;8.320;2024-01-07T11:40:06;0.50;51.70
12847;DHT22;6492;48.128;8.320;2024-01-07T11:44:09;0.50;51.20
12847;DHT22;6492;48.128;8.320;2024-01-07T11:48:12;0.50;51.10
12847;DHT22;6492;48.128;8.320;2024-01-07T11:52:16;0.50;50.80
12847;DHT22;6492;48.128;8.320;2024-01-07T11:56:19;0.50;50.50
12847;DHT22;6492;48.128;8.320;2024-01-07T12:00:21;0.40;50.50
12847;DHT22;6492;48.128;8.320;2024-01-07T12:04:23;0.30;50.90
12847;DHT22;6492;48.128;8.320;2024-01-07T12:08:25;0.30;51.50
12847;DHT22;6492;48.128;8.320;2024-01-07T12:12:28;0.20;51.70
12847;DHT22;6492;48.128;8.320;2024-01-07T12:16:38;0.20;52.00
12847;DHT22;6492;48.128;8.320;2024-01-07T12:20:40;0.20;51.90
12847;DHT22;6492;48.128;8.320;2024-01-07T12:24:42;0.20;51.60
12847;DHT22;6492;48.128;8.320;2024-01-07T12:28:52;0.20;52.30
12847;DHT22;6492;48.128;8.320;2024-01-07T12:32:55;0.20;51.90
12847;DHT22;6492;48.128;8.320;2024-01-07T12:36:58;0.10;52.20
12847;DHT22;6492;48.128;8.320;2024-01-07T12:41:00;0.10;52.60
12847;DHT22;6492;48.128;8.320;2024-01-07T12:45:05;0.10;52.70
12847;DHT22;6492;48.128;8.320;2024-01-07T12:49:07;0.00;53.30
12847;DHT22;6492;48.128;8.320;2024-01-07T12:53:09;0.00;54.10
12847;DHT22;6492;48.128;8.320;2024-01-07T12:57:11;-0.10;54.50
12847;DHT22;6492;48.128;8.320;2024-01-07T13:01:14;-0.20;54.70
12847;DHT22;6492;48.128;8.320;2024-01-07T13:05:16;-0.20;55.20
12847;DHT22;6492;48.128;8.320;2024-01-07T13:09:18;-0.30;55.50
12847;DHT22;6492;48.128;8.320;2024-01-07T13:13:20;-0.40;56.00
12847;DHT22;6492;48.128;8.320;2024-01-07T13:17:47;-0.40;56.50
12847;DHT22;6492;48.128;8.320;2024-01-07T13:21:50;-0.50;56.10
12847;DHT22;6492;48.128;8.320;2024-01-07T13:25:52;-0.50;56.40
12847;DHT22;6492;48.128;8.320;2024-01-07T13:29:54;-0.50;55.80
12847;DHT22;6492;48.128;8.320;2024-01-07T13:33:57;-0.60;55.60
12847;DHT22;6492;48.128;8.320;2024-01-07T13:38:07;-0.60;55.50
12847;DHT22;6492;48.128;8.320;2024-01-07T13:42:10;-0.60;55.80
12847;DHT22;6492;48.128;8.320;2024-01-07T13:46:12;-0.70;55.60
12847;DHT22;6492;48.128;8.320;2024-01-07T13:50:16;-0.70;56.10
12847;DHT22;6492;48.128;8.320;2024-01-07T13:54:18;-0.80;56.00
12847;DHT22;6492;48.128;8.320;2024-01-07T13:58:20;-0.80;56.60
12847;DHT22;6492;48.128;8.320;2024-01-07T14:02:23;-0.90;56.10
12847;DHT22;6492;48.128;8.320;2024-01-07T14:06:26;-0.90;56.10
12847;DHT22;6492;48.128;8.320;2024-01-07T14:10:41;-1.00;55.60
12847;DHT22;6492;48.128;8.320;2024-01-07T14:14:43;-1.20;55.60
12847;DHT22;6492;48.128;8.320;2024-01-07T14:18:45;-1.20;55.90
12847;DHT22;6492;48.128;8.320;2024-01-07T14:22:48;-1.30;55.70
12847;DHT22;6492;48.128;8.320;2024-01-07T14:26:55;-1.40;56.20
12847;DHT22;6492;48.128;8.320;2024-01-07T14:30:56;-1.40;56.90
12847;DHT22;6492;48.128;8.320;2024-01-07T14:35:00;-1.40;57.00
12847;DHT22;6492;48.128;8.320;2024-01-07T14:39:04;-1.50;57.50
12847;DHT22;6492;48.128;8.320;2024-01-07T14:43:06;-1.50;57.80
12847;DHT22;6492;48.128;8.320;2024-01-07T14:47:13;-1.60;58.00
12847;DHT22;6492;48.128;8.320;2024-01-07T14:51:15;-1.50;58.50
12847;DHT22;6492;48.128;8.320;2024-01-07T14:55:18;-1.60;58.50
12847;DHT22;6492;48.128;8.320;2024-01-07T14:59:22;-1.60;59.30
12847;DHT22;6492;48.128;8.320;2024-01-07T15:03:24;-1.60;59.30
12847;DHT22;6492;48.128;8.320;2024-01-07T15:07:33;-1.60;59.90
12847;DHT22;6492;48.128;8.320;2024-01-07T15:11:36;-1.70;60.10
12847;DHT22;6492;48.128;8.320;2024-01-07T15:15:39;-1.70;59.60
12847;DHT22;6492;48.128;8.320;2024-01-07T15:19:46;-1.80;58.70
12847;DHT22;6492;48.128;8.320;2024-01-07T15:23:54;-1.80;58.80
12847;DHT22;6492;48.128;8.320;2024-01-07T15:27:58;-1.80;59.00
12847;DHT22;6492;48.128;8.320;2024-01-07T15:31:59;-1.80;59.00
12847;DHT22;6492;48.128;8.320;2024-01-07T15:36:02;-1.80;59.20
12847;DHT22;6492;48.128;8.320;2024-01-07T15:40:07;-1.80;59.00
12847;DHT22;6492;48.128;8.320;2024-01-07T15:44:10;-1.80;59.00
12847;DHT22;6492;48.128;8.320;2024-01-07T15:48:16;-1.90;59.00
12847;DHT22;6492;48.128;8.320;2024-01-07T15:52:18;-1.90;58.80
12847;DHT22;6492;48.128;8.320;2024-01-07T15:56:23;-1.90;58.90
12847;DHT22;6492;48.128;8.320;2024-01-07T16:00:26;-2.00;58.10
12847;DHT22;6492;48.128;8.320;2024-01-07T16:04:33;-2.00;58.10
12847;DHT22;6492;48.128;8.320;2024-01-07T16:08:35;-2.00;58.10
12847;DHT22;6492;48.128;8.320;2024-01-07T16:12:37;-2.10;58.00
12847;DHT22;6492;48.128;8.320;2024-01-07T16:16:40;-2.10;57.80
12847;DHT22;6492;48.128;8.320;2024-01-07T16:20:42;-2.10;57.80
12847;DHT22;6492;48.128;8.320;2024-01-07T16:24:44;-2.20;57.80
12847;DHT22;6492;48.128;8.320;2024-01-07T16:28:45;-2.20;57.80
12847;DHT22;6492;48.128;8.320;2024-01-07T16:32:48;-2.20;57.60
12847;DHT22;6492;48.128;8.320;2024-01-07T16:36:50;-2.30;56.90
12847;DHT22;6492;48.128;8.320;2024-01-07T16:40:52;-2.40;56.60
12847;DHT22;6492;48.128;8.320;2024-01-07T16:44:54;-2.40;56.60
12847;DHT22;6492;48.128;8.320;2024-01-07T16:48:57;-2.40;56.80
12847;DHT22;6492;48.128;8.320;2024-01-07T16:52:59;-2.50;55.90
12847;DHT22;6492;48.128;8.320;2024-01-07T16:57:02;-2.60;56.40
12847;DHT22;6492;48.128;8.320;2024-01-07T17:01:04;-2.60;55.30
12847;DHT22;6492;48.128;8.320;2024-01-07T17:05:08;-2.70;55.30
12847;DHT22;6492;48.128;8.320;2024-01-07T17:09:10;-2.70;55.00
12847;DHT22;6492;48.128;8.320;2024-01-07T17:13:17;-2.70;55.00
12847;DHT22;6492;48.128;8.320;2024-01-07T17:17:21;-2.80;54.60
12847;DHT22;6492;48.128;8.320;2024-01-07T17:21:33;-2.90;54.80
12847;DHT22;6492;48.128;8.320;2024-01-07T17:25:35;-2.90;54.30
12847;DHT22;6492;48.128;8.320;2024-01-07T17:29:37;-2.90;54.40
12847;DHT22;6492;48.128;8.320;2024-01-07T17:33:39;-3.00;54.30
12847;DHT22;6492;48.128;8.320;2024-01-07T17:37:42;-3.00;54.60
12847;DHT22;6492;48.128;8.320;2024-01-07T17:41:44;-3.00;54.40
12847;DHT22;6492;48.128;8.320;2024-01-07T17:45:45;-3.00;54.60
12847;DHT22;6492;48.128;8.320;2024-01-07T17:49:57;-3.00;54.50
12847;DHT22;6492;48.128;8.320;2024-01-07T17:54:00;-3.10;54.70
12847;DHT22;6492;48.128;8.320;2024-01-07T17:58:03;-3.00;54.30
12847;DHT22;6492;48.128;8.320;2024-01-07T18:02:23;-3.10;54.30
12847;DHT22;6492;48.128;8.320;2024-01-07T18:06:25;-3.10;54.60
12847;DHT22;6492;48.128;8.320;2024-01-07T18:10:29;-3.10;54.30
12847;DHT22;6492;48.128;8.320;2024-01-07T18:14:30;-3.20;54.90
12847;DHT22;6492;48.128;8.320;2024-01-07T18:18:32;-3.30;54.30
12847;DHT22;6492;48.128;8.320;2024-01-07T18:22:34;-3.30;54.50
12847;DHT22;6492;48.128;8.320;2024-01-07T18:26:37;-3.30;54.50
12847;DHT22;6492;48.128;8.320;2024-01-07T18:30:39;-3.30;55.30
12847;DHT22;6492;48.128;8.320;2024-01-07T18:34:42;-3.30;55.00
12847;DHT22;6492;48.128;8.320;2024-01-07T18:38:44;-3.30;55.00
12847;DHT22;6492;48.128;8.320;2024-01-07T18:43:20;-3.30;55.30
12847;DHT22;6492;48.128;8.320;2024-01-07T18:47:22;-3.30;55.30
12847;DHT22;6492;48.128;8.320;2024-01-07T18:51:26;-3.30;55.30
12847;DHT22;6492;48.128;8.320;2024-01-07T18:55:28;-3.30;55.50
12847;DHT22;6492;48.128;8.320;2024-01-07T18:59:32;-3.30;55.60
12847;DHT22;6492;48.128;8.320;2024-01-07T19:03:34;-3.40;55.00
12847;DHT22;6492;48.128;8.320;2024-01-07T19:07:36;-3.40;55.00
12847;DHT22;6492;48.128;8.320;2024-01-07T19:11:38;-3.40;55.00
12847;DHT22;6492;48.128;8.320;2024-01-07T19:15:41;-3.40;55.30
12847;DHT22;6492;48.128;8.320;2024-01-07T19:19:58;-3.40;55.00
12847;DHT22;6492;48.128;8.320;2024-01-07T19:24:00;-3.50;54.90
12847;DHT22;6492;48.128;8.320;2024-01-07T19:28:03;-3.50;54.90
12847;DHT22;6492;48.128;8.320;2024-01-07T19:32:26;-3.60;54.60
12847;DHT22;6492;48.128;8.320;2024-01-07T19:36:27;-3.60;54.20
12847;DHT22;6492;48.128;8.320;2024-01-07T19:40:30;-3.70;54.00
12847;DHT22;6492;48.128;8.320;2024-01-07T19:44:32;-3.70;54.20
12847;DHT22;6492;48.128;8.320;2024-01-07T19:48:35;-3.70;54.90
12847;DHT22;6492;48.128;8.320;2024-01-07T19:52:37;-3.70;54.90
12847;DHT22;6492;48.128;8.320;2024-01-07T20:01:29;-3.70;55.10
12847;DHT22;6492;48.128;8.320;2024-01-07T20:05:32;-3.80;55.00
12847;DHT22;6492;48.128;8.320;2024-01-07T20:09:34;-3.80;55.10
12847;DHT22;6492;48.128;8.320;2024-01-07T20:13:35;-3.70;55.60
12847;DHT22;6492;48.128;8.320;2024-01-07T20:17:38;-3.70;55.70
12847;DHT22;6492;48.128;8.320;2024-01-07T20:21:41;-3.70;55.70
12847;DHT22;6492;48.128;8.320;2024-01-07T20:25:43;-3.80;55.60
12847;DHT22;6492;48.128;8.320;2024-01-07T20:29:46;-3.80;55.60
12847;DHT22;6492;48.128;8.320;2024-01-07T20:33:50;-3.80;55.60
12847;DHT22;6492;48.128;8.320;2024-01-07T20:37:53;-3.80;55.80
12847;DHT22;6492;48.128;8.320;2024-01-07T20:41:55;-3.80;55.60
12847;DHT22;6492;48.128;8.320;2024-01-07T20:45:57;-3.90;55.90
12847;DHT22;6492;48.128;8.320;2024-01-07T20:50:31;-3.90;55.80
12847;DHT22;6492;48.128;8.320;2024-01-07T20:54:37;-4.00;55.70
12847;DHT22;6492;48.128;8.320;2024-01-07T20:59:01;-4.00;55.70
12847;DHT22;6492;48.128;8.320;2024-01-07T21:03:03;-4.00;55.70
12847;DHT22;6492;48.128;8.320;2024-01-07T21:07:05;-4.10;55.70
12847;DHT22;6492;48.128;8.320;2024-01-07T21:11:09;-4.10;55.50
12847;DHT22;6492;48.128;8.320;2024-01-07T21:15:11;-4.20;55.20
12847;DHT22;6492;48.128;8.320;2024-01-07T21:19:21;-4.20;55.30
12847;DHT22;6492;48.128;8.320;2024-01-07T21:23:23;-4.20;55.80
12847;DHT22;6492;48.128;8.320;2024-01-07T21:27:26;-4.20;55.10
12847;DHT22;6492;48.128;8.320;2024-01-07T21:31:28;-4.30;55.20
12847;DHT22;6492;48.128;8.320;2024-01-07T21:35:31;-4.30;55.60
12847;DHT22;6492;48.128;8.320;2024-01-07T21:39:33;-4.40;55.50
12847;DHT22;6492;48.128;8.320;2024-01-07T21:48:23;-4.50;55.90
12847;DHT22;6492;48.128;8.320;2024-01-07T21:52:29;-4.50;55.50
12847;DHT22;6492;48.128;8.320;2024-01-07T21:56:31;-4.60;55.40
12847;DHT22;6492;48.128;8.320;2024-01-07T22:00:33;-4.70;55.40
12847;DHT22;6492;48.128;8.320;2024-01-07T22:04:37;-4.70;55.60
12847;DHT22;6492;48.128;8.320;2024-01-07T22:08:39;-4.70;55.80
12847;DHT22;6492;48.128;8.320;2024-01-07T22:12:41;-4.70;55.60
12847;DHT22;6492;48.128;8.320;2024-01-07T22:16:43;-4.70;55.40
12847;DHT22;6492;48.128;8.320;2024-01-07T22:20:48;-4.80;55.00
12847;DHT22;6492;48.128;8.320;2024-01-07T22:24:50;-4.80;55.00
12847;DHT22;6492;48.128;8.320;2024-01-07T22:28:52;-4.90;54.80
12847;DHT22;6492;48.128;8.320;2024-01-07T22:32:54;-4.90;54.90
12847;DHT22;6492;48.128;8.320;2024-01-07T22:36:57;-4.90;54.80
12847;DHT22;6492;48.128;8.320;2024-01-07T22:40:59;-5.00;54.70
12847;DHT22;6492;48.128;8.320;2024-01-07T22:45:01;-5.00;54.40
12847;DHT22;6492;48.128;8.320;2024-01-07T22:49:03;-5.00;54.20
12847;DHT22;6492;48.128;8.320;2024-01-07T22:53:20;-5.10;53.10
12847;DHT22;6492;48.128;8.320;2024-01-07T22:57:22;-5.10;53.20
12847;DHT22;6492;48.128;8.320;2024-01-07T23:01:27;-5.20;53.30
12847;DHT22;6492;48.128;8.320;2024-01-07T23:05:29;-5.20;52.90
12847;DHT22;6492;48.128;8.320;2024-01-07T23:09:32;-5.30;52.50
12847;DHT22;6492;48.128;8.320;2024-01-07T23:13:34;-5.30;52.30
12847;DHT22;6492;48.128;8.320;2024-01-07T23:17:36;-5.30;52.10
12847;DHT22;6492;48.128;8.320;2024-01-07T23:21:39;-5.40;51.70
12847;DHT22;6492;48.128;8.320;2024-01-07T23:25:43;-5.30;51.50
12847;DHT22;6492;48.128;8.320;2024-01-07T23:29:45;-5.40;51.60
12847;DHT22;6492;48.128;8.320;2024-01-07T23:33:56;-5.40;51.40
12847;DHT22;6492;48.128;8.320;2024-01-07T23:37:57;-5.50;51.30
12847;DHT22;6492;48.128;8.320;2024-01-07T23:42:01;-5.50;51.10
12847;DHT22;6492;48.128;8.320;2024-01-07T23:46:03;-5.50;51.50
12847;DHT22;6492;48.128;8.320;2024-01-07T23:50:06;-5.50;51.00
12847;DHT22;6492;48.128;8.320;2024-01-07T23:54:08;-5.60;50.50
12847;DHT22;6492;48.128;8.320;2024-01-07T23:58:11;-5.60;49.90
